createdAt,value
2022-09-10T00:02:37.489Z,16.87
2022-09-10T00:05:46.656Z,16.90
2022-09-10T00:08:52.923Z,16.68
2022-09-10T00:11:59.274Z,16.72
2022-09-10T00:15:07.968Z,16.61
2022-09-10T00:18:15.579Z,16.95
2022-09-10T00:21:23.094Z,16.98
2022-09-10T00:24:29.327Z,16.83
2022-09-10T00:27:37.300Z,16.87
2022-09-10T00:30:44.877Z,16.19
2022-09-10T00:33:51.439Z,16.30
2022-09-10T00:36:59.485Z,16.34
2022-09-10T00:40:06.589Z,16.82
2022-09-10T00:43:15.223Z,16.88
2022-09-10T00:46:32.918Z,16.96
2022-09-10T00:49:41.879Z,16.70
2022-09-10T00:52:51.476Z,16.31
2022-09-10T00:56:05.339Z,16.58
2022-09-10T00:59:14.694Z,16.57
2022-09-10T01:02:21.721Z,16.67
2022-09-10T01:05:29.415Z,16.59
2022-09-10T01:08:37.453Z,16.92
2022-09-10T01:12:05.059Z,16.84
2022-09-10T01:15:23.276Z,16.59
2022-09-10T01:18:38.147Z,16.65
2022-09-10T01:21:52.098Z,16.76
2022-09-10T01:25:06.163Z,16.72
2022-09-10T01:28:19.456Z,16.84
2022-09-10T01:31:32.515Z,16.71
2022-09-10T01:34:43.655Z,16.61
2022-09-10T01:37:54.620Z,16.71
2022-09-10T01:41:01.151Z,16.45
2022-09-10T01:44:28.154Z,16.55
2022-09-10T01:47:53.186Z,16.56
2022-09-10T01:51:08.959Z,16.51
2022-09-10T01:54:26.466Z,16.37
2022-09-10T01:57:45.048Z,16.38
2022-09-10T02:01:01.779Z,15.99
2022-09-10T02:04:14.855Z,15.29
2022-09-10T02:07:25.466Z,15.42
2022-09-10T02:10:31.926Z,16.08
2022-09-10T02:13:38.867Z,15.84
2022-09-10T02:16:51.568Z,15.40
2022-09-10T02:19:58.491Z,15.38
2022-09-10T02:23:06.451Z,15.42
2022-09-10T02:26:14.569Z,15.75
2022-09-10T02:29:20.834Z,15.96
2022-09-10T02:32:28.889Z,15.33
2022-09-10T02:35:34.821Z,15.92
2022-09-10T02:38:41.188Z,15.97
2022-09-10T02:41:48.218Z,16.03
2022-09-10T02:44:54.283Z,16.23
2022-09-10T02:48:02.185Z,16.12
2022-09-10T02:51:08.494Z,16.34
2022-09-10T02:54:14.795Z,16.30
2022-09-10T02:57:21.232Z,16.18
2022-09-10T03:00:27.431Z,16.37
2022-09-10T03:03:35.611Z,16.09
2022-09-10T03:06:43.372Z,15.92
2022-09-10T03:09:49.952Z,15.97
2022-09-10T03:12:56.275Z,15.94
2022-09-10T03:16:04.720Z,15.89
2022-09-10T03:19:12.556Z,15.55
2022-09-10T03:22:18.890Z,15.02
2022-09-10T03:25:25.125Z,14.91
2022-09-10T03:28:33.075Z,15.29
2022-09-10T03:31:39.899Z,15.55
2022-09-10T03:34:49.283Z,15.74
2022-09-10T03:37:55.753Z,15.39
2022-09-10T03:41:03.240Z,15.84
2022-09-10T03:44:10.367Z,15.89
2022-09-10T03:47:16.827Z,15.44
2022-09-10T03:50:24.737Z,15.80
2022-09-10T03:53:31.182Z,16.00
2022-09-10T03:56:37.328Z,15.90
2022-09-10T03:59:43.878Z,15.96
2022-09-10T04:02:50.316Z,16.00
2022-09-10T04:05:58.604Z,16.08
2022-09-10T04:09:05.367Z,16.17
2022-09-10T04:12:11.582Z,16.06
2022-09-10T04:15:17.659Z,15.98
2022-09-10T04:18:23.838Z,15.66
2022-09-10T04:21:31.666Z,16.16
2022-09-10T04:24:37.755Z,16.02
2022-09-10T04:27:44.191Z,16.28
2022-09-10T04:30:51.349Z,16.23
2022-09-10T04:34:00.252Z,16.22
2022-09-10T04:37:07.995Z,16.48
2022-09-10T04:40:14.062Z,16.71
2022-09-10T04:43:20.231Z,16.73
2022-09-10T04:46:26.850Z,16.76
2022-09-10T04:49:32.889Z,16.77
2022-09-10T04:52:41.425Z,16.79
2022-09-10T04:55:49.252Z,16.75
2022-09-10T04:58:55.755Z,16.94
2022-09-10T05:02:02.323Z,16.98
2022-09-10T05:05:09.621Z,16.94
2022-09-10T05:08:17.347Z,17.14
2022-09-10T05:11:23.842Z,17.03
2022-09-10T05:14:30.666Z,16.99
2022-09-10T05:17:36.826Z,17.17
2022-09-10T05:20:44.877Z,16.52
2022-09-10T05:23:52.600Z,17.12
2022-09-10T05:26:59.373Z,17.02
2022-09-10T05:30:06.448Z,17.23
2022-09-10T05:33:13.006Z,17.28
2022-09-10T05:36:19.488Z,17.23
2022-09-10T05:39:27.184Z,17.23
2022-09-10T05:42:33.176Z,16.84
2022-09-10T05:45:39.755Z,16.91
2022-09-10T05:48:46.100Z,17.08
2022-09-10T05:51:52.731Z,17.20
2022-09-10T05:55:00.073Z,17.31
2022-09-10T05:58:06.336Z,17.48
2022-09-10T06:01:12.718Z,17.46
2022-09-10T06:04:19.893Z,17.46
2022-09-10T06:07:26.196Z,17.59
2022-09-10T06:10:35.338Z,17.94
2022-09-10T06:13:42.642Z,17.96
2022-09-10T06:16:50.103Z,17.69
2022-09-10T06:19:56.397Z,17.81
2022-09-10T06:23:02.874Z,18.27
2022-09-10T06:26:12.999Z,18.22
2022-09-10T06:29:19.986Z,18.23
2022-09-10T06:32:26.253Z,18.21
2022-09-10T06:35:33.401Z,18.40
2022-09-10T06:38:39.917Z,18.13
2022-09-10T06:41:49.769Z,18.26
2022-09-10T06:44:56.350Z,17.95
2022-09-10T06:51:29.601Z,18.26
2022-09-10T06:54:35.763Z,18.20
2022-09-10T06:57:43.383Z,17.97
2022-09-10T07:00:50.235Z,18.25
2022-09-10T07:03:57.976Z,18.42
2022-09-10T07:07:04.060Z,18.55
2022-09-10T07:10:10.803Z,18.23
2022-09-10T07:13:18.503Z,17.95
2022-09-10T07:16:26.932Z,18.43
2022-09-10T07:19:36.359Z,19.20
2022-09-10T07:22:43.901Z,19.28
2022-09-10T07:25:50.231Z,19.02
2022-09-10T07:28:59.043Z,19.11
2022-09-10T07:32:05.650Z,19.43
2022-09-10T07:35:11.635Z,19.56
2022-09-10T07:38:18.172Z,19.65
2022-09-10T07:41:24.546Z,19.93
2022-09-10T07:44:32.066Z,20.39
2022-09-10T07:47:38.523Z,21.58
2022-09-10T07:50:45.526Z,20.74
2022-09-10T07:53:55.226Z,21.36
2022-09-10T07:57:01.393Z,21.45
2022-09-10T08:00:14.854Z,21.26
2022-09-10T08:03:21.636Z,21.04
2022-09-10T08:06:27.697Z,20.92
2022-09-10T08:09:34.523Z,21.12
2022-09-10T08:12:41.987Z,21.43
2022-09-10T08:15:50.478Z,22.15
2022-09-10T08:18:58.018Z,22.29
2022-09-10T08:22:04.487Z,22.54
2022-09-10T08:25:10.438Z,23.23
2022-09-10T08:28:19.066Z,22.52
2022-09-10T08:31:28.778Z,22.59
2022-09-10T08:34:34.744Z,22.64
2022-09-10T08:37:40.956Z,22.57
2022-09-10T08:40:48.783Z,23.09
2022-09-10T08:43:59.522Z,23.07
2022-09-10T08:47:21.388Z,22.60
2022-09-10T08:50:39.035Z,23.19
2022-09-10T08:53:51.111Z,23.54
2022-09-10T08:57:00.508Z,23.88
2022-09-10T09:00:12.228Z,23.90
2022-09-10T09:03:26.425Z,23.87
2022-09-10T09:06:39.622Z,23.40
2022-09-10T09:09:45.824Z,24.46
2022-09-10T09:13:17.971Z,24.86
2022-09-10T09:16:42.633Z,24.12
2022-09-10T09:20:01.748Z,25.34
2022-09-10T09:23:20.753Z,25.33
2022-09-10T09:26:36.093Z,25.77
2022-09-10T09:29:47.858Z,25.58
2022-09-10T09:32:58.742Z,24.90
2022-09-10T09:36:07.411Z,24.91
2022-09-10T09:39:23.879Z,24.93
2022-09-10T09:42:41.148Z,25.57
2022-09-10T09:45:47.848Z,25.48
2022-09-10T09:48:59.464Z,25.81
2022-09-10T09:52:19.754Z,25.42
2022-09-10T09:55:33.041Z,25.83
2022-09-10T09:58:40.454Z,25.91
2022-09-10T10:01:46.618Z,25.39
2022-09-10T10:04:57.148Z,25.90
2022-09-10T10:08:04.638Z,25.55
2022-09-10T10:11:16.988Z,25.86
2022-09-10T10:14:38.807Z,25.50
2022-09-10T10:17:45.083Z,25.28
2022-09-10T10:21:07.352Z,26.77
2022-09-10T10:24:31.904Z,25.42
2022-09-10T10:27:42.753Z,25.56
2022-09-10T10:30:53.624Z,25.83
2022-09-10T10:34:15.277Z,26.08
2022-09-10T10:37:35.379Z,26.77
2022-09-10T10:40:48.718Z,26.65
2022-09-10T10:44:10.434Z,26.60
2022-09-10T10:47:33.560Z,26.35
2022-09-10T10:50:52.909Z,26.48
2022-09-10T10:54:22.260Z,26.87
2022-09-10T10:57:41.315Z,27.26
2022-09-10T11:00:53.285Z,27.35
2022-09-10T11:04:23.221Z,27.15
2022-09-10T11:07:35.645Z,26.99
2022-09-10T11:10:46.359Z,26.85
2022-09-10T11:14:00.158Z,27.27
2022-09-10T11:17:11.650Z,27.00
2022-09-10T11:20:28.993Z,27.42
2022-09-10T11:23:40.555Z,28.49
2022-09-10T11:26:52.279Z,28.12
2022-09-10T11:30:04.783Z,27.73
2022-09-10T11:33:21.365Z,26.95
2022-09-10T11:36:34.712Z,26.60
2022-09-10T11:39:46.797Z,26.82
2022-09-10T11:42:56.747Z,26.67
2022-09-10T11:46:10.013Z,26.53
2022-09-10T11:49:21.852Z,26.85
2022-09-10T11:52:31.023Z,26.55
2022-09-10T11:56:05.227Z,26.64
2022-09-10T11:59:27.102Z,26.82
2022-09-10T12:03:05.097Z,26.69
2022-09-10T12:06:21.594Z,26.39
2022-09-10T12:09:35.214Z,26.31
2022-09-10T12:12:44.284Z,26.25
2022-09-10T12:15:56.175Z,26.82
2022-09-10T12:19:08.280Z,26.76
2022-09-10T12:22:21.865Z,26.65
2022-09-10T12:25:34.312Z,26.44
2022-09-10T12:29:05.546Z,26.64
2022-09-10T12:32:38.606Z,27.51
2022-09-10T12:35:48.625Z,27.40
2022-09-10T12:38:57.688Z,26.28
2022-09-10T12:42:24.586Z,25.73
2022-09-10T12:46:05.615Z,26.59
2022-09-10T12:49:15.136Z,26.93
2022-09-10T12:52:32.292Z,26.90
2022-09-10T12:55:44.764Z,26.66
2022-09-10T12:59:07.014Z,26.68
2022-09-10T13:02:32.019Z,27.10
2022-09-10T13:05:51.782Z,26.50
2022-09-10T13:09:00.206Z,27.47
2022-09-10T13:12:19.720Z,27.72
2022-09-10T13:15:30.128Z,28.86
2022-09-10T13:18:37.056Z,27.32
2022-09-10T13:21:54.984Z,26.94
2022-09-10T13:25:07.343Z,26.62
2022-09-10T13:28:50.499Z,27.11
2022-09-10T13:32:02.432Z,27.13
2022-09-10T13:35:45.442Z,27.34
2022-09-10T13:39:21.884Z,28.91
2022-09-10T13:42:58.403Z,28.37
2022-09-10T13:46:08.049Z,27.92
2022-09-10T13:49:20.122Z,29.33
2022-09-10T13:52:30.890Z,29.81
2022-09-10T13:55:38.017Z,29.90
2022-09-10T13:58:50.206Z,29.32
2022-09-10T14:01:59.502Z,29.86
2022-09-10T14:05:05.515Z,30.25
2022-09-10T14:08:17.812Z,29.95
2022-09-10T14:11:26.334Z,29.56
2022-09-10T14:14:38.879Z,28.78
2022-09-10T14:17:48.158Z,28.46
2022-09-10T14:20:54.690Z,28.67
2022-09-10T14:24:01.113Z,28.26
2022-09-10T14:27:15.780Z,27.90
2022-09-10T14:30:27.424Z,27.15
2022-09-10T14:33:35.476Z,26.60
2022-09-10T14:36:42.006Z,26.47
2022-09-10T14:39:48.945Z,26.44
2022-09-10T14:43:15.362Z,25.81
2022-09-10T14:46:50.590Z,26.05
2022-09-10T14:50:16.581Z,25.79
2022-09-10T14:53:22.616Z,25.73
2022-09-10T15:08:10.983Z,25.34
2022-09-10T15:11:19.190Z,25.16
2022-09-10T15:14:26.105Z,25.37
2022-09-10T15:17:32.151Z,25.61
2022-09-10T15:20:38.925Z,25.39
2022-09-10T15:23:48.349Z,25.40
2022-09-10T15:26:57.094Z,25.71
2022-09-10T15:30:03.544Z,25.69
2022-09-10T15:33:14.374Z,25.82
2022-09-10T15:36:22.489Z,25.07
2022-09-10T15:39:30.325Z,24.92
2022-09-10T15:42:36.651Z,25.01
2022-09-10T15:45:43.271Z,24.70
2022-09-10T15:48:49.931Z,24.69
2022-09-10T15:51:57.364Z,24.77
2022-09-10T15:55:06.909Z,24.58
2022-09-10T15:58:12.891Z,24.03
2022-09-10T16:01:19.919Z,24.13
2022-09-10T16:04:27.868Z,24.26
2022-09-10T16:07:33.978Z,23.73
2022-09-10T16:10:42.370Z,23.70
2022-09-10T16:13:48.624Z,23.73
2022-09-10T16:16:54.467Z,23.66
2022-09-10T16:20:01.114Z,23.15
2022-09-10T16:23:07.582Z,22.79
2022-09-10T16:26:17.155Z,22.80
2022-09-10T16:29:23.291Z,23.12
2022-09-10T16:32:30.659Z,22.79
2022-09-10T16:35:37.223Z,22.89
2022-09-10T16:38:44.878Z,23.16
2022-09-10T16:41:52.664Z,22.81
2022-09-10T16:44:59.135Z,22.27
2022-09-10T16:48:06.341Z,22.27
2022-09-10T16:51:14.504Z,22.18
2022-09-10T16:54:21.126Z,21.99
2022-09-10T16:57:29.385Z,22.12
2022-09-10T17:00:35.671Z,21.83
2022-09-10T17:03:42.899Z,21.50
2022-09-10T17:06:49.476Z,21.44
2022-09-10T17:10:00.534Z,21.55
2022-09-10T17:13:09.673Z,21.72
2022-09-10T17:16:17.762Z,21.15
2022-09-10T17:19:26.517Z,21.09
2022-09-10T17:22:32.908Z,21.13
2022-09-10T17:25:38.871Z,20.93
2022-09-10T17:28:53.508Z,21.06
2022-09-10T17:31:59.745Z,20.41
2022-09-10T17:35:06.714Z,20.78
2022-09-10T17:38:12.602Z,20.71
2022-09-10T17:41:18.751Z,21.07
2022-09-10T17:44:27.042Z,21.24
2022-09-10T17:47:34.359Z,21.03
2022-09-10T17:50:46.607Z,20.88
2022-09-10T17:53:55.331Z,20.95
2022-09-10T17:57:01.632Z,20.74
2022-09-10T18:00:11.253Z,20.72
2022-09-10T18:03:18.835Z,20.62
2022-09-10T18:06:25.693Z,20.53
2022-09-10T18:09:31.850Z,20.73
2022-09-10T18:12:38.204Z,20.75
2022-09-10T18:15:46.543Z,20.56
2022-09-10T18:18:55.934Z,20.30
2022-09-10T18:22:02.944Z,20.16
2022-09-10T18:25:10.011Z,19.92
2022-09-10T18:28:16.158Z,20.23
2022-09-10T18:31:24.777Z,20.13
2022-09-10T18:34:31.961Z,20.15
2022-09-10T18:37:39.688Z,20.08
2022-09-10T18:40:45.925Z,19.92
2022-09-10T18:43:54.035Z,19.67
2022-09-10T18:47:01.992Z,19.74
2022-09-10T18:50:09.182Z,19.82
2022-09-10T18:53:15.982Z,19.78
2022-09-10T18:56:24.474Z,19.74
2022-09-10T18:59:30.892Z,19.93
2022-09-10T19:02:38.687Z,19.60
2022-09-10T19:05:44.928Z,19.63
2022-09-10T19:08:53.838Z,19.55
2022-09-10T19:12:01.629Z,19.35
2022-09-10T19:15:08.593Z,19.14
2022-09-10T19:18:16.133Z,19.30
2022-09-10T19:21:24.110Z,19.10
2022-09-10T19:27:58.746Z,19.42
2022-09-10T19:31:05.625Z,19.20
2022-09-10T19:34:14.524Z,19.28
2022-09-10T19:37:21.061Z,19.22
2022-09-10T19:40:27.420Z,19.10
2022-09-10T19:43:34.408Z,19.16
2022-09-10T19:46:41.235Z,19.05
2022-09-10T19:49:49.315Z,19.06
2022-09-10T19:52:56.097Z,19.05
2022-09-10T19:56:06.923Z,18.82
2022-09-10T19:59:14.660Z,18.99
2022-09-10T20:02:21.080Z,19.10
2022-09-10T20:05:29.071Z,18.86
2022-09-10T20:08:36.113Z,18.91
2022-09-10T20:11:42.316Z,18.72
2022-09-10T20:14:48.476Z,18.82
2022-09-10T20:17:55.010Z,18.70
2022-09-10T20:21:12.974Z,18.63
2022-09-10T20:24:19.270Z,18.51
2022-09-10T20:27:25.696Z,18.61
2022-09-10T20:30:32.216Z,18.41
2022-09-10T20:33:39.075Z,18.59
2022-09-10T20:36:47.107Z,18.69
2022-09-10T20:39:53.915Z,18.59
2022-09-10T20:43:00.207Z,18.79
2022-09-10T20:46:06.681Z,18.54
2022-09-10T20:49:14.027Z,18.60
2022-09-10T20:52:21.738Z,18.37
2022-09-10T20:55:27.787Z,18.46
2022-09-10T20:58:35.520Z,18.19
2022-09-10T21:01:42.030Z,18.17
2022-09-10T21:04:48.476Z,18.22
2022-09-10T21:07:56.632Z,18.32
2022-09-10T21:11:05.075Z,18.11
2022-09-10T21:14:13.007Z,17.89
2022-09-10T21:17:19.730Z,17.96
2022-09-10T21:20:25.883Z,18.07
2022-09-10T21:23:33.755Z,18.15
2022-09-10T21:26:43.492Z,17.93
2022-09-10T21:29:51.205Z,17.65
2022-09-10T21:32:57.108Z,17.95
2022-09-10T21:36:06.482Z,18.04
2022-09-10T21:39:16.114Z,17.88
2022-09-10T21:42:22.435Z,17.81
2022-09-10T21:45:28.861Z,18.01
2022-09-10T21:48:36.471Z,17.92
2022-09-10T21:51:43.298Z,17.86
2022-09-10T21:54:50.865Z,17.69
2022-09-10T21:57:57.331Z,17.88
2022-09-10T22:01:04.120Z,18.20
2022-09-10T22:04:11.183Z,18.19
2022-09-10T22:07:17.543Z,18.21
2022-09-10T22:10:26.635Z,18.17
2022-09-10T22:13:33.152Z,17.79
2022-09-10T22:16:39.291Z,17.46
2022-09-10T22:19:45.572Z,17.44
2022-09-10T22:22:51.859Z,17.42
2022-09-10T22:26:05.484Z,17.33
2022-09-10T22:29:13.080Z,17.23
2022-09-10T22:32:19.575Z,17.21
2022-09-10T22:35:26.858Z,17.14
2022-09-10T22:38:33.274Z,17.25
2022-09-10T22:41:41.538Z,17.06
2022-09-10T22:44:47.970Z,17.07
2022-09-10T22:47:54.267Z,17.09
2022-09-10T22:51:00.574Z,17.00
2022-09-10T22:54:07.767Z,16.93
2022-09-10T22:57:15.168Z,16.84
2022-09-10T23:00:22.315Z,16.84
2022-09-10T23:03:28.478Z,16.82
2022-09-10T23:06:36.184Z,16.82
2022-09-10T23:09:42.328Z,16.82
2022-09-10T23:12:49.810Z,16.94
2022-09-10T23:15:55.809Z,16.88
2022-09-10T23:19:04.004Z,16.82
2022-09-10T23:22:11.471Z,16.91
2022-09-10T23:25:18.758Z,16.82
2022-09-10T23:28:29.223Z,16.96
2022-09-10T23:31:38.747Z,16.82
2022-09-10T23:34:45.307Z,16.90
2022-09-10T23:37:51.379Z,16.54
2022-09-10T23:40:58.805Z,16.72
2022-09-10T23:44:06.500Z,16.80
2022-09-10T23:47:12.887Z,16.57
2022-09-10T23:50:19.188Z,16.66
2022-09-10T23:53:26.319Z,16.67
2022-09-10T23:56:32.785Z,16.46
2022-09-10T23:59:40.439Z,16.61
